sensor_id;sensor_type;location;lat;lon;timestamp;P1;durP1;ratioP1;P2;durP2;ratioP2
72517;SDS011;60540;51.178;6.738;2023-01-01T00:01:27;11.82;;;5.38;;
72517;SDS011;60540;51.178;6.738;2023-01-01T00:03:53;12.23;;;5.43;;
72517;SDS011;60540;51.178;6.738;2023-01-01T00:06:20;15.50;;;8.43;;
72517;SDS011;60540;51.178;6.738;2023-01-01T00:08:46;15.55;;;8.55;;
72517;SDS011;60540;51.178;6.738;2023-01-01T00:11:12;15.00;;;8.95;;
72517;SDS011;60540;51.178;6.738;2023-01-01T00:13:39;16.75;;;9.68;;
72517;SDS011;60540;51.178;6.738;2023-01-01T00:16:05;19.35;;;10.00;;
72517;SDS011;60540;51.178;6.738;2023-01-01T00:18:31;15.70;;;9.23;;
72517;SDS011;60540;51.178;6.738;2023-01-01T00:21:01;17.80;;;9.48;;
72517;SDS011;60540;51.178;6.738;2023-01-01T00:23:27;15.18;;;8.68;;
72517;SDS011;60540;51.178;6.738;2023-01-01T00:25:53;14.80;;;7.97;;
72517;SDS011;60540;51.178;6.738;2023-01-01T00:28:19;12.57;;;7.85;;
72517;SDS011;60540;51.178;6.738;2023-01-01T00:30:44;12.75;;;7.15;;
72517;SDS011;60540;51.178;6.738;2023-01-01T00:33:10;14.63;;;6.68;;
72517;SDS011;60540;51.178;6.738;2023-01-01T00:35:36;14.13;;;6.47;;
72517;SDS011;60540;51.178;6.738;2023-01-01T00:38:01;10.85;;;5.40;;
72517;SDS011;60540;51.178;6.738;2023-01-01T00:40:27;10.27;;;5.18;;
72517;SDS011;60540;51.178;6.738;2023-01-01T00:42:52;9.80;;;4.90;;
72517;SDS011;60540;51.178;6.738;2023-01-01T00:45:18;8.85;;;3.70;;
72517;SDS011;60540;51.178;6.738;2023-01-01T00:47:45;8.07;;;4.13;;
72517;SDS011;60540;51.178;6.738;2023-01-01T00:50:11;8.18;;;3.65;;
72517;SDS011;60540;51.178;6.738;2023-01-01T00:52:36;6.03;;;2.80;;
72517;SDS011;60540;51.178;6.738;2023-01-01T00:55:02;7.20;;;2.83;;
72517;SDS011;60540;51.178;6.738;2023-01-01T00:57:28;8.60;;;2.95;;
72517;SDS011;60540;51.178;6.738;2023-01-01T00:59:53;7.32;;;3.10;;
72517;SDS011;60540;51.178;6.738;2023-01-01T01:02:19;5.95;;;2.13;;
72517;SDS011;60540;51.178;6.738;2023-01-01T01:04:45;8.23;;;3.28;;
72517;SDS011;60540;51.178;6.738;2023-01-01T01:07:10;6.55;;;2.60;;
72517;SDS011;60540;51.178;6.738;2023-01-01T01:09:36;4.80;;;2.20;;
72517;SDS011;60540;51.178;6.738;2023-01-01T01:12:02;6.45;;;2.28;;
72517;SDS011;60540;51.178;6.738;2023-01-01T01:14:28;6.47;;;2.30;;
72517;SDS011;60540;51.178;6.738;2023-01-01T01:16:53;5.07;;;2.05;;
72517;SDS011;60540;51.178;6.738;2023-01-01T01:19:19;5.82;;;2.00;;
72517;SDS011;60540;51.178;6.738;2023-01-01T01:21:48;4.57;;;1.90;;
72517;SDS011;60540;51.178;6.738;2023-01-01T01:24:14;4.22;;;1.90;;
72517;SDS011;60540;51.178;6.738;2023-01-01T01:26:39;5.38;;;2.00;;
72517;SDS011;60540;51.178;6.738;2023-01-01T01:29:05;3.78;;;1.63;;
72517;SDS011;60540;51.178;6.738;2023-01-01T01:31:31;7.03;;;1.92;;
72517;SDS011;60540;51.178;6.738;2023-01-01T01:33:58;5.35;;;2.10;;
72517;SDS011;60540;51.178;6.738;2023-01-01T01:36:24;4.00;;;1.38;;
72517;SDS011;60540;51.178;6.738;2023-01-01T01:38:50;3.50;;;1.45;;
72517;SDS011;60540;51.178;6.738;2023-01-01T01:41:17;4.22;;;1.55;;
72517;SDS011;60540;51.178;6.738;2023-01-01T01:46:40;5.78;;;1.40;;
72517;SDS011;60540;51.178;6.738;2023-01-01T01:49:14;2.90;;;1.17;;
72517;SDS011;60540;51.178;6.738;2023-01-01T01:51:41;6.28;;;1.90;;
72517;SDS011;60540;51.178;6.738;2023-01-01T01:54:09;4.43;;;1.20;;
72517;SDS011;60540;51.178;6.738;2023-01-01T01:56:42;3.63;;;1.30;;
72517;SDS011;60540;51.178;6.738;2023-01-01T01:59:12;3.53;;;1.08;;
72517;SDS011;60540;51.178;6.738;2023-01-01T02:01:38;5.18;;;1.30;;
72517;SDS011;60540;51.178;6.738;2023-01-01T02:04:04;4.35;;;1.42;;
72517;SDS011;60540;51.178;6.738;2023-01-01T02:06:30;3.25;;;1.27;;
72517;SDS011;60540;51.178;6.738;2023-01-01T02:08:58;2.88;;;1.10;;
72517;SDS011;60540;51.178;6.738;2023-01-01T02:11:25;2.97;;;1.15;;
72517;SDS011;60540;51.178;6.738;2023-01-01T02:13:51;5.90;;;1.33;;
72517;SDS011;60540;51.178;6.738;2023-01-01T02:16:28;2.55;;;1.30;;
72517;SDS011;60540;51.178;6.738;2023-01-01T02:19:52;5.43;;;1.25;;
72517;SDS011;60540;51.178;6.738;2023-01-01T02:24:53;5.03;;;1.30;;
72517;SDS011;60540;51.178;6.738;2023-01-01T02:30:24;3.67;;;1.70;;
72517;SDS011;60540;51.178;6.738;2023-01-01T02:32:56;4.40;;;1.45;;
72517;SDS011;60540;51.178;6.738;2023-01-01T02:35:31;2.22;;;1.05;;
72517;SDS011;60540;51.178;6.738;2023-01-01T02:38:02;2.38;;;1.00;;
72517;SDS011;60540;51.178;6.738;2023-01-01T02:40:41;4.63;;;1.40;;
72517;SDS011;60540;51.178;6.738;2023-01-01T02:43:09;5.90;;;1.50;;
72517;SDS011;60540;51.178;6.738;2023-01-01T02:45:34;4.47;;;1.40;;
72517;SDS011;60540;51.178;6.738;2023-01-01T02:48:32;4.63;;;1.35;;
72517;SDS011;60540;51.178;6.738;2023-01-01T02:51:13;2.80;;;1.23;;
72517;SDS011;60540;51.178;6.738;2023-01-01T02:54:04;2.83;;;1.25;;
72517;SDS011;60540;51.178;6.738;2023-01-01T02:56:39;5.15;;;1.23;;
72517;SDS011;60540;51.178;6.738;2023-01-01T02:59:34;5.85;;;1.45;;
72517;SDS011;60540;51.178;6.738;2023-01-01T03:08:42;2.65;;;1.33;;
72517;SDS011;60540;51.178;6.738;2023-01-01T03:11:13;4.70;;;1.30;;
72517;SDS011;60540;51.178;6.738;2023-01-01T03:13:42;5.32;;;1.25;;
72517;SDS011;60540;51.178;6.738;2023-01-01T03:18:54;2.67;;;1.10;;
72517;SDS011;60540;51.178;6.738;2023-01-01T03:21:41;3.28;;;1.23;;
72517;SDS011;60540;51.178;6.738;2023-01-01T03:24:28;7.85;;;1.25;;
72517;SDS011;60540;51.178;6.738;2023-01-01T03:26:57;4.20;;;1.42;;
72517;SDS011;60540;51.178;6.738;2023-01-01T03:29:27;5.03;;;1.00;;
72517;SDS011;60540;51.178;6.738;2023-01-01T03:31:55;2.13;;;1.02;;
72517;SDS011;60540;51.178;6.738;2023-01-01T03:34:24;3.17;;;1.58;;
72517;SDS011;60540;51.178;6.738;2023-01-01T03:36:56;3.53;;;1.33;;
72517;SDS011;60540;51.178;6.738;2023-01-01T03:39:28;4.13;;;1.20;;
72517;SDS011;60540;51.178;6.738;2023-01-01T03:44:45;3.05;;;1.02;;
72517;SDS011;60540;51.178;6.738;2023-01-01T03:47:13;4.60;;;1.50;;
72517;SDS011;60540;51.178;6.738;2023-01-01T03:49:39;3.92;;;1.30;;
72517;SDS011;60540;51.178;6.738;2023-01-01T03:54:43;3.78;;;1.25;;
72517;SDS011;60540;51.178;6.738;2023-01-01T03:57:21;3.08;;;1.10;;
72517;SDS011;60540;51.178;6.738;2023-01-01T04:05:27;4.15;;;1.40;;
72517;SDS011;60540;51.178;6.738;2023-01-01T04:07:53;7.10;;;1.65;;
72517;SDS011;60540;51.178;6.738;2023-01-01T04:10:19;4.13;;;1.10;;
72517;SDS011;60540;51.178;6.738;2023-01-01T04:12:48;3.00;;;1.23;;
72517;SDS011;60540;51.178;6.738;2023-01-01T04:15:16;7.00;;;1.55;;
72517;SDS011;60540;51.178;6.738;2023-01-01T04:17:43;3.45;;;1.30;;
72517;SDS011;60540;51.178;6.738;2023-01-01T04:20:09;1.98;;;0.85;;
72517;SDS011;60540;51.178;6.738;2023-01-01T04:22:35;4.43;;;1.00;;
72517;SDS011;60540;51.178;6.738;2023-01-01T04:25:01;1.88;;;1.00;;
72517;SDS011;60540;51.178;6.738;2023-01-01T04:27:27;3.40;;;1.63;;
72517;SDS011;60540;51.178;6.738;2023-01-01T04:29:53;3.90;;;1.13;;
72517;SDS011;60540;51.178;6.738;2023-01-01T04:32:18;4.65;;;1.20;;
72517;SDS011;60540;51.178;6.738;2023-01-01T04:34:44;2.30;;;1.13;;
72517;SDS011;60540;51.178;6.738;2023-01-01T04:37:10;4.43;;;1.25;;
72517;SDS011;60540;51.178;6.738;2023-01-01T04:39:35;5.13;;;1.23;;
72517;SDS011;60540;51.178;6.738;2023-01-01T04:42:01;3.63;;;1.13;;
72517;SDS011;60540;51.178;6.738;2023-01-01T04:44:27;3.10;;;1.23;;
72517;SDS011;60540;51.178;6.738;2023-01-01T04:46:52;3.58;;;1.00;;
72517;SDS011;60540;51.178;6.738;2023-01-01T04:49:18;3.47;;;1.17;;
72517;SDS011;60540;51.178;6.738;2023-01-01T04:51:43;5.18;;;1.17;;
72517;SDS011;60540;51.178;6.738;2023-01-01T04:54:09;3.00;;;1.00;;
72517;SDS011;60540;51.178;6.738;2023-01-01T04:56:35;3.13;;;1.38;;
72517;SDS011;60540;51.178;6.738;2023-01-01T04:59:01;3.20;;;1.10;;
72517;SDS011;60540;51.178;6.738;2023-01-01T05:01:27;2.53;;;1.02;;
72517;SDS011;60540;51.178;6.738;2023-01-01T05:03:54;3.00;;;1.20;;
72517;SDS011;60540;51.178;6.738;2023-01-01T05:06:20;7.90;;;1.10;;
72517;SDS011;60540;51.178;6.738;2023-01-01T05:08:47;3.03;;;1.38;;
72517;SDS011;60540;51.178;6.738;2023-01-01T05:11:17;3.47;;;1.30;;
72517;SDS011;60540;51.178;6.738;2023-01-01T05:13:46;4.78;;;1.40;;
72517;SDS011;60540;51.178;6.738;2023-01-01T05:16:14;3.65;;;1.13;;
72517;SDS011;60540;51.178;6.738;2023-01-01T05:18:42;3.33;;;1.25;;
72517;SDS011;60540;51.178;6.738;2023-01-01T05:21:10;4.97;;;1.40;;
72517;SDS011;60540;51.178;6.738;2023-01-01T05:23:38;2.83;;;1.05;;
72517;SDS011;60540;51.178;6.738;2023-01-01T05:28:46;4.40;;;1.30;;
72517;SDS011;60540;51.178;6.738;2023-01-01T05:31:21;2.92;;;1.17;;
72517;SDS011;60540;51.178;6.738;2023-01-01T05:33:49;5.57;;;1.85;;
72517;SDS011;60540;51.178;6.738;2023-01-01T05:36:19;2.72;;;1.33;;
72517;SDS011;60540;51.178;6.738;2023-01-01T05:38:56;4.68;;;1.20;;
72517;SDS011;60540;51.178;6.738;2023-01-01T05:41:21;4.22;;;1.35;;
72517;SDS011;60540;51.178;6.738;2023-01-01T05:43:48;3.08;;;1.17;;
72517;SDS011;60540;51.178;6.738;2023-01-01T05:46:16;3.70;;;1.40;;
72517;SDS011;60540;51.178;6.738;2023-01-01T05:48:43;6.28;;;1.70;;
72517;SDS011;60540;51.178;6.738;2023-01-01T05:51:10;9.57;;;1.80;;
72517;SDS011;60540;51.178;6.738;2023-01-01T05:53:40;4.68;;;1.25;;
72517;SDS011;60540;51.178;6.738;2023-01-01T05:56:06;4.72;;;1.30;;
72517;SDS011;60540;51.178;6.738;2023-01-01T05:58:33;2.97;;;1.17;;
72517;SDS011;60540;51.178;6.738;2023-01-01T06:01:06;6.05;;;1.08;;
72517;SDS011;60540;51.178;6.738;2023-01-01T06:03:37;4.07;;;1.10;;
72517;SDS011;60540;51.178;6.738;2023-01-01T06:06:04;4.47;;;1.42;;
72517;SDS011;60540;51.178;6.738;2023-01-01T06:08:31;3.45;;;1.38;;
72517;SDS011;60540;51.178;6.738;2023-01-01T06:10:57;5.72;;;1.58;;
72517;SDS011;60540;51.178;6.738;2023-01-01T06:13:24;4.53;;;1.60;;
72517;SDS011;60540;51.178;6.738;2023-01-01T06:15:53;4.25;;;1.38;;
72517;SDS011;60540;51.178;6.738;2023-01-01T06:18:20;5.22;;;1.73;;
72517;SDS011;60540;51.178;6.738;2023-01-01T06:20:45;5.10;;;1.50;;
72517;SDS011;60540;51.178;6.738;2023-01-01T06:23:11;4.55;;;1.10;;
72517;SDS011;60540;51.178;6.738;2023-01-01T06:25:36;3.53;;;1.00;;
72517;SDS011;60540;51.178;6.738;2023-01-01T06:28:02;5.47;;;1.40;;
72517;SDS011;60540;51.178;6.738;2023-01-01T06:30:28;4.30;;;1.25;;
72517;SDS011;60540;51.178;6.738;2023-01-01T06:32:55;4.28;;;1.20;;
72517;SDS011;60540;51.178;6.738;2023-01-01T06:35:21;3.90;;;1.40;;
72517;SDS011;60540;51.178;6.738;2023-01-01T06:37:47;3.60;;;1.10;;
72517;SDS011;60540;51.178;6.738;2023-01-01T06:40:12;3.65;;;1.15;;
72517;SDS011;60540;51.178;6.738;2023-01-01T06:42:39;5.20;;;1.35;;
72517;SDS011;60540;51.178;6.738;2023-01-01T06:45:04;4.80;;;1.50;;
72517;SDS011;60540;51.178;6.738;2023-01-01T06:47:33;3.55;;;1.10;;
72517;SDS011;60540;51.178;6.738;2023-01-01T06:50:00;3.85;;;1.30;;
72517;SDS011;60540;51.178;6.738;2023-01-01T06:52:26;3.25;;;1.13;;
72517;SDS011;60540;51.178;6.738;2023-01-01T06:54:52;3.97;;;2.20;;
72517;SDS011;60540;51.178;6.738;2023-01-01T06:57:18;3.78;;;1.45;;
72517;SDS011;60540;51.178;6.738;2023-01-01T06:59:44;4.05;;;1.63;;
72517;SDS011;60540;51.178;6.738;2023-01-01T07:02:10;4.20;;;1.30;;
72517;SDS011;60540;51.178;6.738;2023-01-01T07:04:36;3.83;;;1.23;;
72517;SDS011;60540;51.178;6.738;2023-01-01T07:07:02;3.92;;;1.13;;
72517;SDS011;60540;51.178;6.738;2023-01-01T07:09:28;4.35;;;1.33;;
72517;SDS011;60540;51.178;6.738;2023-01-01T07:11:53;4.18;;;1.50;;
72517;SDS011;60540;51.178;6.738;2023-01-01T07:14:19;5.35;;;1.40;;
72517;SDS011;60540;51.178;6.738;2023-01-01T07:16:45;3.50;;;1.20;;
72517;SDS011;60540;51.178;6.738;2023-01-01T07:19:10;3.53;;;1.10;;
72517;SDS011;60540;51.178;6.738;2023-01-01T07:24:12;6.18;;;1.80;;
72517;SDS011;60540;51.178;6.738;2023-01-01T07:26:39;4.80;;;1.45;;
72517;SDS011;60540;51.178;6.738;2023-01-01T07:29:05;3.85;;;1.30;;
72517;SDS011;60540;51.178;6.738;2023-01-01T07:31:36;4.82;;;1.13;;
72517;SDS011;60540;51.178;6.738;2023-01-01T07:34:02;3.55;;;1.33;;
72517;SDS011;60540;51.178;6.738;2023-01-01T07:36:28;4.07;;;1.10;;
72517;SDS011;60540;51.178;6.738;2023-01-01T07:38:54;3.67;;;1.10;;
72517;SDS011;60540;51.178;6.738;2023-01-01T07:41:19;3.83;;;0.98;;
72517;SDS011;60540;51.178;6.738;2023-01-01T07:43:45;4.25;;;1.83;;
72517;SDS011;60540;51.178;6.738;2023-01-01T07:46:11;3.42;;;1.77;;
72517;SDS011;60540;51.178;6.738;2023-01-01T07:48:37;4.90;;;1.40;;
72517;SDS011;60540;51.178;6.738;2023-01-01T07:51:03;9.35;;;1.77;;
72517;SDS011;60540;51.178;6.738;2023-01-01T07:53:28;4.13;;;1.48;;
72517;SDS011;60540;51.178;6.738;2023-01-01T07:55:54;5.30;;;1.35;;
72517;SDS011;60540;51.178;6.738;2023-01-01T07:58:20;4.93;;;1.25;;
72517;SDS011;60540;51.178;6.738;2023-01-01T08:00:47;3.58;;;1.27;;
72517;SDS011;60540;51.178;6.738;2023-01-01T08:03:13;3.97;;;1.17;;
72517;SDS011;60540;51.178;6.738;2023-01-01T08:05:39;3.70;;;1.30;;
72517;SDS011;60540;51.178;6.738;2023-01-01T08:08:04;4.90;;;1.40;;
72517;SDS011;60540;51.178;6.738;2023-01-01T08:10:30;7.00;;;1.83;;
72517;SDS011;60540;51.178;6.738;2023-01-01T08:12:59;5.20;;;1.52;;
72517;SDS011;60540;51.178;6.738;2023-01-01T08:15:26;4.82;;;1.33;;
72517;SDS011;60540;51.178;6.738;2023-01-01T08:17:58;6.20;;;2.13;;
72517;SDS011;60540;51.178;6.738;2023-01-01T08:20:27;5.53;;;1.40;;
72517;SDS011;60540;51.178;6.738;2023-01-01T08:22:53;5.45;;;1.80;;
72517;SDS011;60540;51.178;6.738;2023-01-01T08:25:19;6.32;;;1.35;;
72517;SDS011;60540;51.178;6.738;2023-01-01T08:27:45;6.07;;;1.50;;
72517;SDS011;60540;51.178;6.738;2023-01-01T08:30:12;5.68;;;1.50;;
72517;SDS011;60540;51.178;6.738;2023-01-01T08:32:38;4.22;;;1.60;;
72517;SDS011;60540;51.178;6.738;2023-01-01T08:35:04;6.10;;;2.00;;
72517;SDS011;60540;51.178;6.738;2023-01-01T08:37:29;6.63;;;1.65;;
72517;SDS011;60540;51.178;6.738;2023-01-01T08:39:55;3.95;;;1.17;;
72517;SDS011;60540;51.178;6.738;2023-01-01T08:42:21;4.05;;;1.40;;
72517;SDS011;60540;51.178;6.738;2023-01-01T08:44:46;5.45;;;1.45;;
72517;SDS011;60540;51.178;6.738;2023-01-01T08:47:19;4.32;;;1.30;;
72517;SDS011;60540;51.178;6.738;2023-01-01T08:49:49;2.90;;;1.30;;
72517;SDS011;60540;51.178;6.738;2023-01-01T08:52:15;3.65;;;1.50;;
72517;SDS011;60540;51.178;6.738;2023-01-01T08:54:41;3.70;;;1.40;;
72517;SDS011;60540;51.178;6.738;2023-01-01T08:57:07;4.82;;;1.67;;
72517;SDS011;60540;51.178;6.738;2023-01-01T08:59:33;6.90;;;1.85;;
72517;SDS011;60540;51.178;6.738;2023-01-01T09:01:58;4.97;;;1.50;;
72517;SDS011;60540;51.178;6.738;2023-01-01T09:04:24;5.35;;;1.92;;
72517;SDS011;60540;51.178;6.738;2023-01-01T09:06:50;3.65;;;1.13;;
72517;SDS011;60540;51.178;6.738;2023-01-01T09:09:16;5.22;;;1.52;;
72517;SDS011;60540;51.178;6.738;2023-01-01T09:11:52;3.42;;;1.13;;
72517;SDS011;60540;51.178;6.738;2023-01-01T09:14:19;4.35;;;1.40;;
72517;SDS011;60540;51.178;6.738;2023-01-01T09:16:44;6.80;;;1.40;;
72517;SDS011;60540;51.178;6.738;2023-01-01T09:19:10;5.10;;;1.35;;
72517;SDS011;60540;51.178;6.738;2023-01-01T09:21:36;4.40;;;1.27;;
72517;SDS011;60540;51.178;6.738;2023-01-01T09:24:02;5.80;;;1.73;;
72517;SDS011;60540;51.178;6.738;2023-01-01T09:26:27;2.65;;;1.10;;
72517;SDS011;60540;51.178;6.738;2023-01-01T09:28:53;4.65;;;1.50;;
72517;SDS011;60540;51.178;6.738;2023-01-01T09:31:19;3.65;;;1.48;;
72517;SDS011;60540;51.178;6.738;2023-01-01T09:33:44;4.50;;;1.98;;
72517;SDS011;60540;51.178;6.738;2023-01-01T09:36:25;5.60;;;1.45;;
72517;SDS011;60540;51.178;6.738;2023-01-01T09:38:53;4.78;;;1.33;;
72517;SDS011;60540;51.178;6.738;2023-01-01T09:44:37;5.40;;;1.80;;
72517;SDS011;60540;51.178;6.738;2023-01-01T09:50:17;4.63;;;1.50;;
72517;SDS011;60540;51.178;6.738;2023-01-01T09:52:47;2.97;;;1.40;;
72517;SDS011;60540;51.178;6.738;2023-01-01T09:55:18;7.07;;;1.52;;
72517;SDS011;60540;51.178;6.738;2023-01-01T09:57:49;3.95;;;1.15;;
72517;SDS011;60540;51.178;6.738;2023-01-01T10:00:15;5.00;;;1.60;;
72517;SDS011;60540;51.178;6.738;2023-01-01T10:10:38;4.13;;;1.10;;
72517;SDS011;60540;51.178;6.738;2023-01-01T10:13:21;4.75;;;1.50;;
72517;SDS011;60540;51.178;6.738;2023-01-01T10:15:53;7.00;;;2.72;;
72517;SDS011;60540;51.178;6.738;2023-01-01T10:18:24;4.50;;;1.20;;
72517;SDS011;60540;51.178;6.738;2023-01-01T10:20:57;3.20;;;1.20;;
72517;SDS011;60540;51.178;6.738;2023-01-01T10:23:27;4.32;;;1.27;;
72517;SDS011;60540;51.178;6.738;2023-01-01T10:25:56;3.20;;;0.98;;
72517;SDS011;60540;51.178;6.738;2023-01-01T10:30:54;6.18;;;1.50;;
72517;SDS011;60540;51.178;6.738;2023-01-01T10:33:35;3.63;;;1.15;;
72517;SDS011;60540;51.178;6.738;2023-01-01T10:36:00;3.05;;;1.10;;
72517;SDS011;60540;51.178;6.738;2023-01-01T10:38:26;4.72;;;1.50;;
72517;SDS011;60540;51.178;6.738;2023-01-01T10:40:55;6.78;;;1.55;;
72517;SDS011;60540;51.178;6.738;2023-01-01T10:43:24;6.07;;;1.23;;
72517;SDS011;60540;51.178;6.738;2023-01-01T10:45:51;2.65;;;1.40;;
72517;SDS011;60540;51.178;6.738;2023-01-01T10:55:59;3.72;;;1.33;;
72517;SDS011;60540;51.178;6.738;2023-01-01T10:58:46;5.15;;;1.50;;
72517;SDS011;60540;51.178;6.738;2023-01-01T11:04:01;3.67;;;1.38;;
72517;SDS011;60540;51.178;6.738;2023-01-01T11:06:31;3.67;;;1.40;;
72517;SDS011;60540;51.178;6.738;2023-01-01T11:08:59;5.88;;;1.70;;
72517;SDS011;60540;51.178;6.738;2023-01-01T11:11:28;4.38;;;1.27;;
72517;SDS011;60540;51.178;6.738;2023-01-01T11:13:59;4.90;;;1.30;;
72517;SDS011;60540;51.178;6.738;2023-01-01T11:16:26;4.88;;;1.00;;
72517;SDS011;60540;51.178;6.738;2023-01-01T11:18:59;4.05;;;1.30;;
72517;SDS011;60540;51.178;6.738;2023-01-01T11:21:26;3.25;;;1.20;;
72517;SDS011;60540;51.178;6.738;2023-01-01T11:24:05;4.18;;;1.40;;
72517;SDS011;60540;51.178;6.738;2023-01-01T11:26:34;4.53;;;1.50;;
72517;SDS011;60540;51.178;6.738;2023-01-01T11:29:02;5.38;;;1.20;;
72517;SDS011;60540;51.178;6.738;2023-01-01T11:31:38;3.38;;;1.40;;
72517;SDS011;60540;51.178;6.738;2023-01-01T11:34:19;5.20;;;1.33;;
72517;SDS011;60540;51.178;6.738;2023-01-01T11:36:52;4.32;;;1.45;;
72517;SDS011;60540;51.178;6.738;2023-01-01T11:39:19;8.68;;;2.13;;
72517;SDS011;60540;51.178;6.738;2023-01-01T11:41:47;5.30;;;1.55;;
72517;SDS011;60540;51.178;6.738;2023-01-01T11:44:21;3.95;;;1.23;;
72517;SDS011;60540;51.178;6.738;2023-01-01T11:46:50;2.88;;;1.38;;
72517;SDS011;60540;51.178;6.738;2023-01-01T11:49:20;4.47;;;1.58;;
72517;SDS011;60540;51.178;6.738;2023-01-01T11:51:48;6.20;;;1.35;;
72517;SDS011;60540;51.178;6.738;2023-01-01T11:56:59;3.35;;;1.25;;
72517;SDS011;60540;51.178;6.738;2023-01-01T11:59:31;4.55;;;1.13;;
72517;SDS011;60540;51.178;6.738;2023-01-01T12:02:23;4.72;;;1.67;;
72517;SDS011;60540;51.178;6.738;2023-01-01T12:04:59;5.72;;;1.45;;
72517;SDS011;60540;51.178;6.738;2023-01-01T12:07:30;8.35;;;1.55;;
72517;SDS011;60540;51.178;6.738;2023-01-01T12:10:00;3.05;;;1.50;;
72517;SDS011;60540;51.178;6.738;2023-01-01T12:15:00;3.65;;;1.30;;
72517;SDS011;60540;51.178;6.738;2023-01-01T12:20:22;4.05;;;1.40;;
72517;SDS011;60540;51.178;6.738;2023-01-01T12:22:51;4.95;;;1.17;;
72517;SDS011;60540;51.178;6.738;2023-01-01T12:25:19;4.65;;;1.40;;
72517;SDS011;60540;51.178;6.738;2023-01-01T12:35:50;6.13;;;1.55;;
72517;SDS011;60540;51.178;6.738;2023-01-01T12:40:56;3.78;;;1.40;;
72517;SDS011;60540;51.178;6.738;2023-01-01T12:43:50;4.53;;;1.48;;
72517;SDS011;60540;51.178;6.738;2023-01-01T12:49:26;3.40;;;1.20;;
72517;SDS011;60540;51.178;6.738;2023-01-01T12:52:09;4.05;;;1.20;;
72517;SDS011;60540;51.178;6.738;2023-01-01T12:57:29;3.53;;;1.40;;
72517;SDS011;60540;51.178;6.738;2023-01-01T13:00:11;4.68;;;1.35;;
72517;SDS011;60540;51.178;6.738;2023-01-01T13:02:49;3.35;;;1.80;;
72517;SDS011;60540;51.178;6.738;2023-01-01T13:05:23;5.07;;;1.40;;
72517;SDS011;60540;51.178;6.738;2023-01-01T13:08:11;5.30;;;1.92;;
72517;SDS011;60540;51.178;6.738;2023-01-01T13:10:41;6.20;;;1.30;;
72517;SDS011;60540;51.178;6.738;2023-01-01T13:13:08;7.20;;;1.88;;
72517;SDS011;60540;51.178;6.738;2023-01-01T13:18:05;6.20;;;1.92;;
72517;SDS011;60540;51.178;6.738;2023-01-01T13:20:38;3.85;;;1.58;;
72517;SDS011;60540;51.178;6.738;2023-01-01T13:23:05;6.85;;;1.60;;
72517;SDS011;60540;51.178;6.738;2023-01-01T13:45:17;3.92;;;1.40;;
72517;SDS011;60540;51.178;6.738;2023-01-01T13:53:54;5.75;;;1.58;;
72517;SDS011;60540;51.178;6.738;2023-01-01T13:59:11;5.82;;;1.33;;
72517;SDS011;60540;51.178;6.738;2023-01-01T14:10:34;4.85;;;1.40;;
72517;SDS011;60540;51.178;6.738;2023-01-01T14:12:59;4.88;;;1.52;;
72517;SDS011;60540;51.178;6.738;2023-01-01T14:15:36;5.18;;;1.40;;
72517;SDS011;60540;51.178;6.738;2023-01-01T14:18:09;5.40;;;1.55;;
72517;SDS011;60540;51.178;6.738;2023-01-01T14:20:39;4.32;;;1.40;;
72517;SDS011;60540;51.178;6.738;2023-01-01T14:23:08;4.47;;;1.70;;
72517;SDS011;60540;51.178;6.738;2023-01-01T14:25:36;6.40;;;1.60;;
72517;SDS011;60540;51.178;6.738;2023-01-01T14:28:02;5.28;;;1.40;;
72517;SDS011;60540;51.178;6.738;2023-01-01T14:30:29;5.70;;;1.60;;
72517;SDS011;60540;51.178;6.738;2023-01-01T14:33:00;3.78;;;1.38;;
72517;SDS011;60540;51.178;6.738;2023-01-01T14:35:27;6.65;;;1.60;;
72517;SDS011;60540;51.178;6.738;2023-01-01T14:37:53;6.25;;;3.03;;
72517;SDS011;60540;51.178;6.738;2023-01-01T14:40:21;5.85;;;1.92;;
72517;SDS011;60540;51.178;6.738;2023-01-01T14:42:53;6.57;;;1.50;;
72517;SDS011;60540;51.178;6.738;2023-01-01T14:45:21;4.85;;;1.30;;
72517;SDS011;60540;51.178;6.738;2023-01-01T14:47:48;5.93;;;1.55;;
72517;SDS011;60540;51.178;6.738;2023-01-01T14:50:18;5.80;;;2.25;;
72517;SDS011;60540;51.178;6.738;2023-01-01T14:52:49;7.10;;;3.17;;
72517;SDS011;60540;51.178;6.738;2023-01-01T14:55:20;4.65;;;2.40;;
72517;SDS011;60540;51.178;6.738;2023-01-01T14:57:46;11.45;;;4.68;;
72517;SDS011;60540;51.178;6.738;2023-01-01T15:00:20;6.15;;;3.55;;
72517;SDS011;60540;51.178;6.738;2023-01-01T15:02:48;10.32;;;5.28;;
72517;SDS011;60540;51.178;6.738;2023-01-01T15:05:28;8.23;;;3.28;;
72517;SDS011;60540;51.178;6.738;2023-01-01T15:07:59;6.72;;;2.75;;
72517;SDS011;60540;51.178;6.738;2023-01-01T15:10:26;6.45;;;1.73;;
72517;SDS011;60540;51.178;6.738;2023-01-01T15:12:54;4.30;;;1.48;;
72517;SDS011;60540;51.178;6.738;2023-01-01T15:15:37;5.90;;;1.55;;
72517;SDS011;60540;51.178;6.738;2023-01-01T15:20:58;3.45;;;1.40;;
72517;SDS011;60540;51.178;6.738;2023-01-01T15:23:24;4.57;;;1.60;;
72517;SDS011;60540;51.178;6.738;2023-01-01T15:25:50;6.18;;;2.03;;
72517;SDS011;60540;51.178;6.738;2023-01-01T15:28:19;10.30;;;1.95;;
72517;SDS011;60540;51.178;6.738;2023-01-01T15:30:50;3.97;;;2.00;;
72517;SDS011;60540;51.178;6.738;2023-01-01T15:33:19;5.70;;;1.95;;
72517;SDS011;60540;51.178;6.738;2023-01-01T15:35:46;5.72;;;1.85;;
72517;SDS011;60540;51.178;6.738;2023-01-01T15:38:15;5.53;;;1.85;;
72517;SDS011;60540;51.178;6.738;2023-01-01T15:40:44;8.50;;;2.95;;
72517;SDS011;60540;51.178;6.738;2023-01-01T15:43:14;4.65;;;2.20;;
72517;SDS011;60540;51.178;6.738;2023-01-01T15:45:40;4.82;;;1.80;;
72517;SDS011;60540;51.178;6.738;2023-01-01T15:50:36;5.07;;;1.88;;
72517;SDS011;60540;51.178;6.738;2023-01-01T15:53:08;6.35;;;2.00;;
72517;SDS011;60540;51.178;6.738;2023-01-01T15:55:41;8.18;;;1.80;;
72517;SDS011;60540;51.178;6.738;2023-01-01T15:58:12;6.53;;;2.03;;
72517;SDS011;60540;51.178;6.738;2023-01-01T16:00:43;5.28;;;2.03;;
72517;SDS011;60540;51.178;6.738;2023-01-01T16:03:22;4.68;;;1.92;;
72517;SDS011;60540;51.178;6.738;2023-01-01T16:05:51;4.10;;;1.83;;
72517;SDS011;60540;51.178;6.738;2023-01-01T16:08:17;5.00;;;2.05;;
72517;SDS011;60540;51.178;6.738;2023-01-01T16:13:10;6.60;;;1.98;;
72517;SDS011;60540;51.178;6.738;2023-01-01T16:15:37;4.25;;;1.85;;
72517;SDS011;60540;51.178;6.738;2023-01-01T16:18:13;4.97;;;2.20;;
72517;SDS011;60540;51.178;6.738;2023-01-01T16:20:41;9.13;;;2.10;;
72517;SDS011;60540;51.178;6.738;2023-01-01T16:23:10;6.07;;;2.13;;
72517;SDS011;60540;51.178;6.738;2023-01-01T16:25:36;5.60;;;2.20;;
72517;SDS011;60540;51.178;6.738;2023-01-01T16:28:02;5.15;;;2.00;;
72517;SDS011;60540;51.178;6.738;2023-01-01T16:30:30;5.68;;;1.83;;
72517;SDS011;60540;51.178;6.738;2023-01-01T16:32:56;5.90;;;2.00;;
72517;SDS011;60540;51.178;6.738;2023-01-01T16:35:21;3.88;;;1.20;;
72517;SDS011;60540;51.178;6.738;2023-01-01T16:37:47;3.83;;;1.38;;
72517;SDS011;60540;51.178;6.738;2023-01-01T16:40:13;2.95;;;1.25;;
72517;SDS011;60540;51.178;6.738;2023-01-01T16:42:39;4.15;;;1.20;;
72517;SDS011;60540;51.178;6.738;2023-01-01T16:45:05;3.95;;;1.52;;
72517;SDS011;60540;51.178;6.738;2023-01-01T16:47:31;4.03;;;1.67;;
72517;SDS011;60540;51.178;6.738;2023-01-01T16:49:57;4.65;;;1.98;;
72517;SDS011;60540;51.178;6.738;2023-01-01T16:52:22;7.15;;;3.05;;
72517;SDS011;60540;51.178;6.738;2023-01-01T16:54:48;6.45;;;2.38;;
72517;SDS011;60540;51.178;6.738;2023-01-01T16:57:13;6.03;;;2.95;;
72517;SDS011;60540;51.178;6.738;2023-01-01T16:59:39;5.60;;;2.42;;
72517;SDS011;60540;51.178;6.738;2023-01-01T17:02:05;3.60;;;1.75;;
72517;SDS011;60540;51.178;6.738;2023-01-01T17:04:34;3.72;;;1.40;;
72517;SDS011;60540;51.178;6.738;2023-01-01T17:07:01;4.75;;;1.55;;
72517;SDS011;60540;51.178;6.738;2023-01-01T17:09:27;4.10;;;1.67;;
72517;SDS011;60540;51.178;6.738;2023-01-01T17:11:53;4.97;;;1.83;;